Time;durP1;ratioP1;P1;durP2;ratioP2;P2;SDS_P1;SDS_P2;PMS_P1;PMS_P2;Temp;Humidity;BMP_temperature;BMP_pressure;BME280_temperature;BME280_humidity;BME280_pressure;Samples;Min_cycle;Max_cycle;Signal;HPM_P1;HPM_P2
2024/02/14 00:02:25;;;;;;;4.15;2.40;;;3.80;99.90;;;;;;5013444;28;20594;-71
2024/02/14 00:05:11;;;;;;;3.03;2.05;;;3.80;99.90;;;;;;5015357;28;20245;-71
2024/02/14 00:07:58;;;;;;;7.90;2.17;;;3.80;99.90;;;;;;5016351;28;20218;-72
2024/02/14 00:10:44;;;;;;;4.35;2.05;;;3.80;99.90;;;;;;5013691;28;20238;-72
2024/02/14 00:13:33;;;;;;;6.55;2.90;;;3.80;99.90;;;;;;5008600;28;20864;-71
2024/02/14 00:16:19;;;;;;;5.53;2.75;;;3.80;99.90;;;;;;5020005;28;20210;-72
2024/02/14 00:19:05;;;;;;;4.38;2.30;;;3.90;99.90;;;;;;5015553;28;20326;-71
2024/02/14 00:21:50;;;;;;;2.55;1.90;;;3.80;99.90;;;;;;5008907;28;20233;-72
2024/02/14 00:24:37;;;;;;;2.22;1.75;;;3.80;99.90;;;;;;5014154;28;20268;-71
2024/02/14 00:27:24;;;;;;;5.38;2.38;;;3.80;99.90;;;;;;5015254;28;20307;-71
2024/02/14 00:30:10;;;;;;;3.40;2.10;;;3.70;99.90;;;;;;5011940;28;20235;-71
2024/02/14 00:32:56;;;;;;;4.15;2.60;;;3.80;99.90;;;;;;5015210;28;20252;-71
2024/02/14 00:35:42;;;;;;;9.32;2.53;;;4.00;99.90;;;;;;5014270;28;20677;-72
2024/02/14 00:38:27;;;;;;;6.40;2.70;;;4.00;99.90;;;;;;5010881;28;20262;-72
2024/02/14 00:41:14;;;;;;;6.55;2.58;;;4.10;99.90;;;;;;5013294;28;20486;-71
2024/02/14 00:44:00;;;;;;;10.18;2.80;;;4.20;99.90;;;;;;5012916;28;20210;-71
2024/02/14 00:46:45;;;;;;;5.15;3.08;;;4.30;99.90;;;;;;5011975;28;20211;-72
2024/02/14 00:49:31;;;;;;;4.95;2.63;;;4.40;99.90;;;;;;5012458;28;20207;-71
2024/02/14 00:52:17;;;;;;;4.45;2.60;;;4.40;99.90;;;;;;5009274;28;20590;-71
2024/02/14 00:55:03;;;;;;;5.35;2.50;;;4.50;99.90;;;;;;5011002;28;20754;-72
2024/02/14 00:57:50;;;;;;;3.10;2.38;;;4.60;99.90;;;;;;5013537;28;20586;-72
2024/02/14 01:00:36;;;;;;;4.90;3.05;;;4.60;99.90;;;;;;5010716;28;20235;-72
2024/02/14 01:03:21;;;;;;;3.90;2.30;;;4.70;99.90;;;;;;5010008;28;20231;-72
2024/02/14 01:06:07;;;;;;;3.92;2.45;;;4.80;99.90;;;;;;5013236;28;20312;-71
2024/02/14 01:08:53;;;;;;;3.72;2.58;;;4.80;99.90;;;;;;5014277;28;20258;-72
2024/02/14 01:11:39;;;;;;;5.70;4.40;;;4.90;99.90;;;;;;5011240;28;20323;-71
2024/02/14 01:14:25;;;;;;;11.00;6.30;;;5.00;99.90;;;;;;5009612;28;20465;-71
2024/02/14 01:17:11;;;;;;;10.25;6.20;;;5.10;99.90;;;;;;5012718;28;20210;-72
2024/02/14 01:19:58;;;;;;;9.93;8.15;;;5.10;99.90;;;;;;5010508;28;20235;-72
2024/02/14 01:22:44;;;;;;;12.38;8.50;;;5.10;99.90;;;;;;5012897;28;20768;-71
2024/02/14 01:25:30;;;;;;;16.58;8.13;;;5.10;99.90;;;;;;5006501;28;20213;-72
2024/02/14 01:28:17;;;;;;;12.30;8.33;;;5.10;99.90;;;;;;5013475;28;20203;-71
2024/02/14 01:31:03;;;;;;;10.20;6.97;;;5.10;99.90;;;;;;5011617;23;20524;-73
2024/02/14 01:33:49;;;;;;;12.05;5.68;;;5.20;99.90;;;;;;4970653;28;20946;-73
2024/02/14 01:36:35;;;;;;;9.70;5.22;;;5.30;99.90;;;;;;4970766;28;20218;-73
2024/02/14 01:39:21;;;;;;;8.10;5.93;;;5.40;99.90;;;;;;4970820;28;20357;-73
2024/02/14 01:42:07;;;;;;;11.80;6.75;;;5.40;99.90;;;;;;4968752;28;20483;-73
2024/02/14 01:44:54;;;;;;;9.13;7.23;;;5.40;99.90;;;;;;4969236;28;20237;-73
2024/02/14 01:47:41;;;;;;;8.30;5.77;;;5.40;99.90;;;;;;4967433;28;20448;-73
2024/02/14 01:50:29;;;;;;;7.47;5.40;;;5.40;99.90;;;;;;4970294;28;20502;-73
2024/02/14 01:53:15;;;;;;;10.07;6.23;;;5.40;99.90;;;;;;4969143;28;20201;-73
2024/02/14 01:56:01;;;;;;;10.47;6.30;;;5.50;99.90;;;;;;4968237;28;20587;-73
2024/02/14 01:58:48;;;;;;;11.00;6.03;;;5.50;99.90;;;;;;4970813;28;21009;-73
2024/02/14 02:01:34;;;;;;;8.00;5.40;;;5.50;99.90;;;;;;4970127;28;20463;-73
2024/02/14 02:04:21;;;;;;;8.73;5.90;;;5.50;99.90;;;;;;4968214;28;20444;-73
2024/02/14 02:07:07;;;;;;;9.20;6.23;;;5.50;99.90;;;;;;4969905;28;20583;-73
2024/02/14 02:09:53;;;;;;;12.05;5.35;;;5.50;99.90;;;;;;4969968;28;20509;-73
2024/02/14 02:12:39;;;;;;;6.55;4.72;;;5.50;99.90;;;;;;4970723;28;20204;-73
2024/02/14 02:15:24;;;;;;;7.83;4.63;;;5.60;99.90;;;;;;4966319;28;20213;-73
2024/02/14 02:18:10;;;;;;;7.00;3.95;;;5.60;99.90;;;;;;4966626;28;20488;-73
2024/02/14 02:20:57;;;;;;;10.13;4.30;;;5.60;99.90;;;;;;4968511;28;20312;-73
2024/02/14 02:23:45;;;;;;;6.90;4.13;;;5.60;99.90;;;;;;4967646;28;20479;-73
2024/02/14 02:26:30;;;;;;;10.20;4.50;;;5.80;99.90;;;;;;4968781;28;20429;-74
2024/02/14 02:29:16;;;;;;;7.70;4.50;;;5.80;99.90;;;;;;4968777;28;20440;-73
2024/02/14 02:32:01;;;;;;;11.83;3.40;;;5.90;99.90;;;;;;4966843;28;20644;-73
2024/02/14 02:34:47;;;;;;;10.97;3.17;;;5.90;99.90;;;;;;4968404;28;20447;-73
2024/02/14 02:37:34;;;;;;;5.60;2.80;;;6.20;99.90;;;;;;4970161;28;21392;-73
2024/02/14 02:40:21;;;;;;;5.20;2.53;;;6.50;99.90;;;;;;4974454;28;20457;-73
2024/02/14 02:43:07;;;;;;;4.67;2.20;;;6.80;99.90;;;;;;4972744;28;20525;-73
2024/02/14 02:45:53;;;;;;;4.87;3.23;;;7.00;99.90;;;;;;4969213;28;20478;-73
2024/02/14 02:48:39;;;;;;;6.07;2.27;;;7.20;99.90;;;;;;4968910;28;20457;-73
2024/02/14 02:51:24;;;;;;;21.53;3.10;;;7.40;99.90;;;;;;4965522;28;20472;-73
2024/02/14 02:54:11;;;;;;;6.13;2.50;;;7.60;99.90;;;;;;4966108;28;20664;-75
2024/02/14 02:56:58;;;;;;;6.90;3.40;;;7.80;99.90;;;;;;4972921;28;20495;-72
2024/02/14 02:59:44;;;;;;;3.60;2.70;;;8.00;99.90;;;;;;4968786;28;20436;-72
2024/02/14 03:02:31;;;;;;;7.97;2.63;;;8.00;99.90;;;;;;4972055;28;20465;-72
2024/02/14 03:05:18;;;;;;;7.23;2.77;;;8.10;99.90;;;;;;4965648;28;20460;-72
2024/02/14 03:08:04;;;;;;;5.57;2.33;;;8.20;99.90;;;;;;4967585;28;20967;-73
2024/02/14 03:10:50;;;;;;;6.17;2.00;;;8.30;99.90;;;;;;4970886;28;20457;-73
2024/02/14 03:13:40;;;;;;;7.07;2.17;;;8.30;99.90;;;;;;4972776;28;20770;-73
2024/02/14 03:16:26;;;;;;;6.80;2.27;;;8.40;99.90;;;;;;4973210;28;20431;-73
2024/02/14 03:19:12;;;;;;;6.17;2.70;;;8.50;99.90;;;;;;4972172;28;20947;-73
2024/02/14 03:21:58;;;;;;;6.23;2.80;;;8.50;99.90;;;;;;4972714;28;21045;-74
2024/02/14 03:24:46;;;;;;;9.23;3.23;;;8.50;99.90;;;;;;4971975;28;20428;-73
2024/02/14 03:27:32;;;;;;;8.43;2.63;;;8.60;99.90;;;;;;4968626;28;20466;-73
2024/02/14 03:30:19;;;;;;;5.17;2.80;;;8.60;99.90;;;;;;4969895;28;20489;-74
2024/02/14 03:33:07;;;;;;;6.20;2.53;;;8.50;99.90;;;;;;4972651;28;20417;-73
2024/02/14 03:35:53;;;;;;;6.37;3.10;;;8.60;99.90;;;;;;4972571;28;20438;-73
2024/02/14 03:38:39;;;;;;;7.60;2.80;;;8.60;99.90;;;;;;4972274;28;20434;-73
2024/02/14 03:41:24;;;;;;;4.67;2.87;;;8.60;99.90;;;;;;4969563;28;20477;-73
2024/02/14 03:44:10;;;;;;;7.30;3.17;;;8.50;99.90;;;;;;4966091;28;20484;-74
2024/02/14 03:46:57;;;;;;;10.60;3.00;;;8.50;99.90;;;;;;4965887;28;20461;-73
2024/02/14 03:49:42;;;;;;;8.13;3.20;;;8.50;99.90;;;;;;4965537;28;20504;-74
2024/02/14 03:52:29;;;;;;;6.87;3.00;;;8.60;99.90;;;;;;4967236;28;20482;-73
2024/02/14 03:55:17;;;;;;;7.17;2.80;;;8.50;99.90;;;;;;4970465;28;20595;-73
2024/02/14 03:58:03;;;;;;;4.30;2.90;;;8.60;99.90;;;;;;4967129;28;20577;-73
2024/02/14 04:00:48;;;;;;;8.90;3.13;;;8.60;99.90;;;;;;4967124;28;21074;-73
2024/02/14 04:03:36;;;;;;;6.30;3.10;;;8.60;99.90;;;;;;4966742;28;20490;-73
2024/02/14 04:06:21;;;;;;;5.80;2.53;;;8.70;99.90;;;;;;4968649;28;20857;-73
2024/02/14 04:09:07;;;;;;;8.10;2.70;;;8.70;99.90;;;;;;4964105;28;20439;-73
2024/02/14 04:11:53;;;;;;;9.03;4.20;;;8.70;99.90;;;;;;4965148;28;20502;-73
2024/02/14 04:14:39;;;;;;;4.60;3.10;;;8.70;99.90;;;;;;4966405;28;20424;-74
2024/02/14 04:17:24;;;;;;;6.33;3.20;;;8.70;99.90;;;;;;4967201;28;20441;-73
2024/02/14 04:20:12;;;;;;;4.93;3.17;;;8.80;99.90;;;;;;4965409;28;20947;-73
2024/02/14 04:22:58;;;;;;;13.80;3.80;;;8.70;99.90;;;;;;4967050;28;20490;-73
2024/02/14 04:25:44;;;;;;;5.53;3.53;;;8.70;99.90;;;;;;4963086;28;20529;-74
2024/02/14 04:28:29;;;;;;;7.63;4.07;;;8.70;99.90;;;;;;4967198;28;20439;-74
2024/02/14 04:31:15;;;;;;;5.30;3.03;;;8.70;99.90;;;;;;4964550;28;20512;-73
2024/02/14 04:34:01;;;;;;;9.63;5.17;;;8.70;99.90;;;;;;4966507;28;20457;-73
2024/02/14 04:36:48;;;;;;;9.47;3.80;;;8.70;99.90;;;;;;4969380;28;20906;-74
2024/02/14 04:39:34;;;;;;;7.50;2.93;;;8.70;99.90;;;;;;4965245;28;20581;-73
2024/02/14 04:42:19;;;;;;;10.90;3.30;;;8.70;99.90;;;;;;4964602;28;20852;-73
2024/02/14 04:45:06;;;;;;;6.03;3.13;;;8.70;99.90;;;;;;4961954;28;20552;-73
2024/02/14 04:47:52;;;;;;;8.73;3.50;;;8.80;99.90;;;;;;4966502;28;20454;-73
2024/02/14 04:50:38;;;;;;;11.50;2.80;;;8.70;99.90;;;;;;4966131;28;20593;-73
2024/02/14 04:53:25;;;;;;;5.53;3.87;;;8.70;99.90;;;;;;4964965;28;21006;-73
2024/02/14 04:56:11;;;;;;;6.77;2.80;;;8.70;99.90;;;;;;4966344;28;20921;-73
2024/02/14 04:58:57;;;;;;;7.27;3.10;;;8.80;99.90;;;;;;4963315;28;20447;-74
2024/02/14 05:01:43;;;;;;;11.50;3.90;;;8.70;99.90;;;;;;4963549;28;20444;-74
2024/02/14 05:04:29;;;;;;;5.13;3.33;;;8.70;99.90;;;;;;4963328;28;20492;-74
2024/02/14 05:07:16;;;;;;;5.30;3.10;;;8.80;99.90;;;;;;4966094;28;20453;-73
2024/02/14 05:10:03;;;;;;;7.20;3.07;;;8.80;99.90;;;;;;4968671;28;21049;-73
2024/02/14 05:12:48;;;;;;;7.37;3.00;;;8.80;99.90;;;;;;4966013;28;20517;-73
2024/02/14 05:15:35;;;;;;;5.70;2.70;;;8.70;99.90;;;;;;4966467;28;20512;-73
2024/02/14 05:18:20;;;;;;;3.60;2.63;;;8.80;99.90;;;;;;4967129;28;20453;-73
2024/02/14 05:21:07;;;;;;;5.83;3.40;;;8.80;99.90;;;;;;4973293;28;20640;-74
2024/02/14 05:23:53;;;;;;;5.50;3.00;;;8.80;99.90;;;;;;4963807;28;20560;-73
2024/02/14 05:26:40;;;;;;;4.47;2.50;;;8.90;99.90;;;;;;4969487;28;20441;-74
2024/02/14 05:29:25;;;;;;;4.87;2.90;;;8.90;99.90;;;;;;4971353;28;20947;-73
2024/02/14 05:32:11;;;;;;;11.60;2.80;;;8.90;99.90;;;;;;4967662;28;20501;-73
2024/02/14 05:34:56;;;;;;;4.63;2.60;;;8.90;99.90;;;;;;4966675;28;20477;-74
2024/02/14 05:37:42;;;;;;;5.70;3.57;;;8.90;99.90;;;;;;4968734;28;20578;-73
2024/02/14 05:40:28;;;;;;;4.77;2.30;;;8.90;99.90;;;;;;4967165;28;20602;-73
2024/02/14 05:43:15;;;;;;;7.87;4.33;;;9.00;99.90;;;;;;4963149;28;20481;-73
2024/02/14 05:46:01;;;;;;;9.07;3.07;;;9.00;99.90;;;;;;4965858;28;20508;-73
2024/02/14 05:48:48;;;;;;;8.07;3.83;;;9.00;99.90;;;;;;4968877;28;20444;-74
2024/02/14 05:51:33;;;;;;;6.13;2.47;;;8.90;99.90;;;;;;4965558;28;20828;-74
2024/02/14 05:54:19;;;;;;;5.70;2.53;;;8.90;99.90;;;;;;4966615;28;20424;-73
2024/02/14 05:57:05;;;;;;;9.03;2.90;;;8.90;99.90;;;;;;4964346;28;20471;-73
2024/02/14 05:59:52;;;;;;;4.70;2.60;;;8.90;99.90;;;;;;4964157;28;20461;-73
2024/02/14 06:02:39;;;;;;;5.70;2.67;;;8.90;99.90;;;;;;4965232;28;20798;-73
2024/02/14 06:05:24;;;;;;;7.00;2.83;;;8.90;99.90;;;;;;4963909;28;20473;-73
2024/02/14 06:08:10;;;;;;;4.77;3.60;;;8.90;99.90;;;;;;4963984;28;20510;-73
2024/02/14 06:10:56;;;;;;;6.80;2.33;;;8.90;99.90;;;;;;4967692;28;20492;-73
2024/02/14 06:13:42;;;;;;;4.97;2.53;;;8.90;99.90;;;;;;4969614;28;20450;-73
2024/02/14 06:16:29;;;;;;;6.10;2.90;;;8.90;99.90;;;;;;4969703;28;20456;-71
2024/02/14 06:19:14;;;;;;;7.70;2.60;;;8.90;99.90;;;;;;4968772;28;20824;-73
2024/02/14 06:22:00;;;;;;;6.23;2.60;;;8.90;99.90;;;;;;4965688;28;20555;-73
2024/02/14 06:24:48;;;;;;;11.10;3.23;;;9.00;99.90;;;;;;4967958;28;20991;-73
2024/02/14 06:27:34;;;;;;;9.80;3.53;;;8.90;99.90;;;;;;4966941;28;20838;-74
2024/02/14 06:30:19;;;;;;;9.20;2.87;;;8.90;99.90;;;;;;4967214;28;20576;-73
2024/02/14 06:33:07;;;;;;;5.53;2.70;;;8.90;99.90;;;;;;4969155;28;21007;-73
2024/02/14 06:35:52;;;;;;;8.47;3.13;;;9.00;99.90;;;;;;4967183;28;20501;-74
2024/02/14 06:38:38;;;;;;;5.63;2.93;;;9.00;99.90;;;;;;4972120;28;20457;-73
2024/02/14 06:41:24;;;;;;;4.40;3.57;;;9.00;99.90;;;;;;4968198;28;20469;-73
2024/02/14 06:44:09;;;;;;;8.17;3.20;;;9.00;99.90;;;;;;4969232;28;20472;-73
2024/02/14 06:46:55;;;;;;;6.63;4.20;;;9.00;99.90;;;;;;4967158;28;20424;-73
2024/02/14 06:49:42;;;;;;;8.50;2.93;;;8.90;99.90;;;;;;4967062;28;20469;-73
2024/02/14 06:52:27;;;;;;;8.10;2.97;;;8.90;99.90;;;;;;4968653;28;20513;-73
2024/02/14 06:55:13;;;;;;;8.17;2.50;;;8.90;99.90;;;;;;4966204;28;20531;-73
2024/02/14 06:57:59;;;;;;;10.53;3.40;;;8.90;99.90;;;;;;4969744;28;20536;-74
2024/02/14 07:00:44;;;;;;;5.57;2.70;;;8.90;99.90;;;;;;4970417;28;20484;-74
2024/02/14 07:03:30;;;;;;;16.57;2.83;;;8.90;99.90;;;;;;4969885;28;20799;-74
2024/02/14 07:06:18;;;;;;;10.53;3.20;;;8.90;99.90;;;;;;4970178;28;20454;-73
2024/02/14 07:09:04;;;;;;;8.60;5.37;;;8.90;99.90;;;;;;4969001;28;20452;-73
2024/02/14 07:11:50;;;;;;;11.10;3.37;;;8.90;99.90;;;;;;4967398;28;20496;-73
2024/02/14 07:14:36;;;;;;;5.20;2.93;;;8.90;99.90;;;;;;4966100;28;20456;-73
2024/02/14 07:17:22;;;;;;;5.87;2.67;;;9.00;99.90;;;;;;4968328;28;20540;-74
2024/02/14 07:20:09;;;;;;;7.50;4.30;;;8.90;99.90;;;;;;4976631;28;20488;-73
2024/02/14 07:22:56;;;;;;;9.93;3.10;;;9.00;99.90;;;;;;4971362;28;20450;-73
2024/02/14 07:25:42;;;;;;;6.13;2.90;;;9.00;99.90;;;;;;4964632;28;20478;-73
2024/02/14 07:28:27;;;;;;;5.23;2.50;;;9.00;99.90;;;;;;4966858;28;20449;-73
2024/02/14 07:31:13;;;;;;;6.80;2.17;;;9.00;99.90;;;;;;4968580;28;21848;-73
2024/02/14 07:33:59;;;;;;;5.73;2.60;;;9.00;99.90;;;;;;4967476;28;20551;-73
2024/02/14 07:36:46;;;;;;;7.07;2.77;;;9.10;99.90;;;;;;4965911;28;20466;-73
2024/02/14 07:39:34;;;;;;;5.07;2.73;;;9.00;99.90;;;;;;4967367;28;20486;-73
2024/02/14 07:42:20;;;;;;;8.33;3.00;;;9.10;99.90;;;;;;4967849;28;20819;-73
2024/02/14 07:45:06;;;;;;;9.57;6.47;;;9.10;99.90;;;;;;4960736;28;20485;-74
2024/02/14 07:47:52;;;;;;;4.80;3.23;;;9.10;99.90;;;;;;4966012;28;20461;-73
2024/02/14 07:50:38;;;;;;;7.30;3.00;;;9.10;99.90;;;;;;4968223;28;20451;-73
2024/02/14 07:53:23;;;;;;;7.10;3.40;;;9.10;99.90;;;;;;4965779;28;20658;-73
2024/02/14 07:56:10;;;;;;;9.20;4.77;;;9.10;99.90;;;;;;4965145;28;20560;-73
2024/02/14 07:58:56;;;;;;;8.97;3.20;;;9.10;99.90;;;;;;4966363;28;20451;-73
2024/02/14 08:01:43;;;;;;;7.13;2.60;;;9.10;99.90;;;;;;4970357;28;20606;-73
2024/02/14 08:04:28;;;;;;;5.10;2.63;;;9.10;99.90;;;;;;4965051;28;20994;-74
2024/02/14 08:07:14;;;;;;;4.77;2.77;;;9.10;99.90;;;;;;4965287;28;20991;-73
2024/02/14 08:09:59;;;;;;;4.07;2.63;;;9.10;99.90;;;;;;4967841;28;20457;-73
2024/02/14 08:12:47;;;;;;;7.27;3.80;;;9.10;99.90;;;;;;4966131;28;20466;-72
2024/02/14 08:15:32;;;;;;;9.90;3.53;;;9.20;99.90;;;;;;4965125;28;20429;-74
2024/02/14 08:18:18;;;;;;;8.60;4.50;;;9.20;99.90;;;;;;4964448;28;20469;-73
2024/02/14 08:21:04;;;;;;;7.90;3.20;;;9.10;99.90;;;;;;4964931;28;20497;-73
2024/02/14 08:23:50;;;;;;;6.67;3.20;;;9.20;99.90;;;;;;4967913;28;20450;-73
2024/02/14 08:26:36;;;;;;;4.97;2.80;;;9.20;99.90;;;;;;4965373;28;20451;-73
2024/02/14 08:29:23;;;;;;;8.50;2.90;;;9.20;99.90;;;;;;4961287;28;20952;-73
2024/02/14 08:32:09;;;;;;;4.40;3.17;;;9.20;99.90;;;;;;4960476;28;20472;-73
2024/02/14 08:34:54;;;;;;;6.73;3.00;;;9.20;99.90;;;;;;4961369;28;20533;-73
2024/02/14 08:37:40;;;;;;;7.50;3.10;;;9.30;99.90;;;;;;4964278;28;20487;-73
2024/02/14 08:40:26;;;;;;;7.67;4.37;;;9.30;99.90;;;;;;4963103;28;20474;-73
2024/02/14 08:43:12;;;;;;;7.83;2.87;;;9.30;99.90;;;;;;4965380;28;20816;-73
2024/02/14 08:45:59;;;;;;;6.33;2.97;;;9.30;99.90;;;;;;4969523;28;20908;-74
2024/02/14 08:48:46;;;;;;;5.10;3.10;;;9.30;99.90;;;;;;4964322;28;20578;-73
2024/02/14 08:51:32;;;;;;;4.30;3.23;;;9.30;99.90;;;;;;4964918;28;20470;-73
2024/02/14 08:54:17;;;;;;;10.10;3.57;;;9.30;99.90;;;;;;4965966;28;21143;-74
2024/02/14 08:57:03;;;;;;;5.80;3.23;;;9.30;99.90;;;;;;4964864;28;20501;-73
2024/02/14 08:59:49;;;;;;;9.50;4.60;;;9.30;99.90;;;;;;4966587;28;20582;-73
2024/02/14 09:02:36;;;;;;;10.53;3.80;;;9.30;99.90;;;;;;4966122;28;21089;-73
2024/02/14 09:05:22;;;;;;;10.60;4.20;;;9.30;99.90;;;;;;4969506;28;20505;-73
2024/02/14 09:08:08;;;;;;;7.23;3.00;;;9.30;99.90;;;;;;4969619;28;20621;-73
2024/02/14 09:10:54;;;;;;;6.47;3.20;;;9.30;99.90;;;;;;4964362;28;20627;-73
2024/02/14 09:13:41;;;;;;;8.43;4.27;;;9.30;99.90;;;;;;4965087;28;20457;-73
2024/02/14 09:16:26;;;;;;;5.57;3.20;;;9.30;99.90;;;;;;4964450;28;20556;-74
2024/02/14 09:19:14;;;;;;;6.07;3.80;;;9.30;99.90;;;;;;4962010;28;20497;-73
2024/02/14 09:21:59;;;;;;;7.00;3.27;;;9.40;99.90;;;;;;4962539;28;20457;-73
2024/02/14 09:24:45;;;;;;;8.20;3.10;;;9.40;99.90;;;;;;4964146;28;20616;-73
2024/02/14 09:27:30;;;;;;;10.83;3.70;;;9.40;99.90;;;;;;4966703;28;20475;-74
2024/02/14 09:30:17;;;;;;;9.03;3.20;;;9.40;99.90;;;;;;4962737;28;20541;-73
2024/02/14 09:33:05;;;;;;;5.40;3.03;;;9.40;99.90;;;;;;4963438;28;20923;-73
2024/02/14 09:35:52;;;;;;;4.93;2.97;;;9.50;99.90;;;;;;4966220;28;20943;-73
2024/02/14 09:38:37;;;;;;;4.00;2.33;;;9.50;99.90;;;;;;4966302;28;20922;-73
2024/02/14 09:41:27;;;;;;;10.53;3.40;;;9.50;99.90;;;;;;4963903;28;20448;-74
2024/02/14 09:44:13;;;;;;;4.57;3.00;;;9.50;99.90;;;;;;4966163;28;20545;-73
2024/02/14 09:47:00;;;;;;;5.10;3.17;;;9.60;99.90;;;;;;4967716;28;20440;-73
2024/02/14 09:49:47;;;;;;;5.70;3.47;;;9.60;99.90;;;;;;4962120;28;20534;-73
2024/02/14 09:52:35;;;;;;;12.20;5.60;;;9.60;99.90;;;;;;4964197;28;20963;-74
2024/02/14 09:55:23;;;;;;;8.43;3.60;;;9.70;99.90;;;;;;4961736;28;20462;-73
2024/02/14 09:58:08;;;;;;;7.60;4.47;;;9.70;99.90;;;;;;4964489;28;20459;-73
2024/02/14 10:00:54;;;;;;;7.60;3.30;;;9.80;99.90;;;;;;4964424;28;20476;-74
2024/02/14 10:03:40;;;;;;;5.13;3.00;;;9.80;99.90;;;;;;4960714;28;21098;-73
2024/02/14 10:06:26;;;;;;;4.53;2.80;;;9.90;99.90;;;;;;4963157;28;20488;-73
2024/02/14 10:09:13;;;;;;;5.70;2.87;;;10.10;99.90;;;;;;4962828;28;20570;-72
2024/02/14 10:11:59;;;;;;;4.63;3.07;;;10.10;99.90;;;;;;4965178;28;20464;-73
2024/02/14 10:14:45;;;;;;;4.70;2.50;;;10.10;99.90;;;;;;4963656;28;20570;-73
2024/02/14 10:17:30;;;;;;;3.90;2.40;;;10.20;99.90;;;;;;4964532;28;20441;-73
2024/02/14 10:20:18;;;;;;;3.60;2.50;;;10.20;99.90;;;;;;4963299;28;20469;-73
2024/02/14 10:23:05;;;;;;;10.23;2.43;;;10.30;99.90;;;;;;4962129;28;20998;-73
2024/02/14 10:25:55;;;;;;;5.67;2.90;;;10.30;99.90;;;;;;4967464;28;20949;-71
2024/02/14 10:28:42;;;;;;;10.53;2.47;;;10.30;99.90;;;;;;4965100;28;21068;-73
2024/02/14 10:31:28;;;;;;;3.70;2.20;;;10.40;99.90;;;;;;4965579;28;21055;-73
2024/02/14 10:34:14;;;;;;;3.80;2.60;;;10.40;99.90;;;;;;4967535;28;20571;-73
2024/02/14 10:37:02;;;;;;;9.23;4.30;;;10.50;99.90;;;;;;4967408;28;20441;-73
2024/02/14 10:39:51;;;;;;;7.40;3.63;;;10.50;99.90;;;;;;4965737;28;20437;-73
2024/02/14 10:42:38;;;;;;;5.03;2.77;;;10.50;99.90;;;;;;4964028;28;20430;-73
2024/02/14 10:45:24;;;;;;;3.30;2.70;;;10.60;99.90;;;;;;4963699;28;20537;-73
2024/02/14 10:48:13;;;;;;;8.10;3.30;;;10.60;99.90;;;;;;4966989;28;20454;-73
2024/02/14 10:51:00;;;;;;;6.80;3.77;;;10.60;99.90;;;;;;4965144;28;21031;-73
2024/02/14 10:53:47;;;;;;;6.00;3.33;;;10.50;99.90;;;;;;4968389;28;20454;-73
2024/02/14 10:56:33;;;;;;;5.07;3.10;;;10.40;99.90;;;;;;4967163;28;20964;-73
2024/02/14 10:59:24;;;;;;;8.17;4.53;;;10.40;99.90;;;;;;4971870;28;20617;-73
2024/02/14 11:02:10;;;;;;;7.43;2.93;;;10.40;99.90;;;;;;4971042;28;20462;-73
2024/02/14 11:04:56;;;;;;;8.87;3.60;;;10.40;99.90;;;;;;4967854;28;20452;-73
2024/02/14 11:07:46;;;;;;;10.00;3.00;;;10.40;99.90;;;;;;4970794;28;20453;-73
2024/02/14 11:10:39;;;;;;;8.47;3.17;;;10.40;99.90;;;;;;4973993;28;20851;-73
2024/02/14 11:13:27;;;;;;;6.20;3.00;;;10.50;99.90;;;;;;4970248;28;20989;-73
2024/02/14 11:16:14;;;;;;;4.20;3.40;;;10.50;99.90;;;;;;4973080;28;20813;-74
2024/02/14 11:19:10;;;;;;;4.77;3.03;;;10.50;99.90;;;;;;4972357;28;20446;-73
2024/02/14 11:21:57;;;;;;;8.00;3.20;;;10.40;99.90;;;;;;4971502;28;21106;-73
2024/02/14 11:24:42;;;;;;;5.33;3.37;;;10.50;99.90;;;;;;4968982;28;20978;-73
2024/02/14 11:27:30;;;;;;;6.17;3.10;;;10.50;99.90;;;;;;4967963;28;20877;-73
2024/02/14 11:30:16;;;;;;;8.50;3.40;;;10.50;99.90;;;;;;4968925;28;20477;-73
2024/02/14 11:33:27;;;;;;;6.37;3.07;;;10.50;99.90;;;;;;4966974;28;20496;-71
2024/02/14 11:36:14;;;;;;;5.33;3.53;;;10.40;99.90;;;;;;4962009;28;20540;-72
2024/02/14 11:39:03;;;;;;;4.63;3.13;;;10.40;99.90;;;;;;4967344;28;20432;-73
2024/02/14 11:41:48;;;;;;;7.87;4.23;;;10.40;99.90;;;;;;4964411;28;20475;-72
2024/02/14 11:44:37;;;;;;;4.93;2.73;;;10.30;99.90;;;;;;4968719;28;20454;-72
2024/02/14 11:47:23;;;;;;;6.50;3.20;;;10.40;99.90;;;;;;4968464;28;20425;-73
2024/02/14 11:50:11;;;;;;;6.37;3.10;;;10.40;99.90;;;;;;4966946;28;20504;-73
2024/02/14 11:52:57;;;;;;;7.20;3.10;;;10.50;99.90;;;;;;4971390;28;21277;-73
2024/02/14 11:55:42;;;;;;;4.87;3.00;;;10.50;99.90;;;;;;4970303;28;20421;-73
2024/02/14 11:58:28;;;;;;;3.57;2.70;;;10.60;99.90;;;;;;4975743;28;20494;-73
2024/02/14 12:01:14;;;;;;;4.83;2.23;;;10.60;99.90;;;;;;4967622;28;20421;-73
2024/02/14 12:04:01;;;;;;;8.00;2.57;;;10.60;99.90;;;;;;4975529;28;20473;-73
2024/02/14 12:06:48;;;;;;;7.17;3.20;;;10.60;99.90;;;;;;4970728;28;20517;-73
2024/02/14 12:09:33;;;;;;;4.60;2.57;;;10.60;99.90;;;;;;4972535;28;20425;-73
2024/02/14 12:12:19;;;;;;;4.27;2.50;;;10.60;99.90;;;;;;4968249;28;20443;-73
2024/02/14 12:15:06;;;;;;;7.13;2.30;;;10.70;99.90;;;;;;4966984;28;20497;-73
2024/02/14 12:17:52;;;;;;;4.93;2.80;;;10.70;99.90;;;;;;4973182;28;20405;-73
2024/02/14 12:20:38;;;;;;;6.50;2.77;;;10.70;99.90;;;;;;4973375;28;20528;-73
2024/02/14 12:23:27;;;;;;;4.40;2.70;;;10.80;99.90;;;;;;4972867;28;20566;-73
2024/02/14 12:26:17;;;;;;;5.00;2.80;;;10.90;99.90;;;;;;4971095;28;20445;-73
2024/02/14 12:29:04;;;;;;;6.83;3.47;;;11.00;99.90;;;;;;4973070;28;20437;-73
2024/02/14 12:31:50;;;;;;;18.40;9.57;;;11.10;99.90;;;;;;4970997;28;21011;-73
2024/02/14 12:34:36;;;;;;;7.37;4.43;;;11.10;99.90;;;;;;4972442;28;20413;-73
2024/02/14 12:37:21;;;;;;;6.20;3.73;;;11.10;99.90;;;;;;4969966;28;20425;-73
2024/02/14 12:40:10;;;;;;;5.90;3.43;;;11.10;99.90;;;;;;4973250;28;20997;-73
2024/02/14 12:42:55;;;;;;;6.10;3.00;;;11.20;99.90;;;;;;4971822;28;20797;-73
2024/02/14 12:45:42;;;;;;;9.90;2.87;;;11.10;99.90;;;;;;4968658;28;20457;-72
2024/02/14 12:48:27;;;;;;;3.07;2.27;;;11.00;99.90;;;;;;4969527;28;20401;-73
2024/02/14 12:51:14;;;;;;;4.40;2.17;;;11.00;99.90;;;;;;4971336;28;20465;-73
2024/02/14 12:53:59;;;;;;;6.77;2.53;;;11.00;99.90;;;;;;4967408;28;20915;-73
2024/02/14 12:56:46;;;;;;;5.37;3.53;;;11.00;99.90;;;;;;4965261;28;20807;-73
2024/02/14 12:59:32;;;;;;;5.37;2.73;;;11.00;99.90;;;;;;4964637;28;20897;-73
2024/02/14 13:02:17;;;;;;;5.30;3.07;;;11.00;99.90;;;;;;4967262;28;20816;-73
2024/02/14 13:05:04;;;;;;;5.50;3.60;;;11.00;99.90;;;;;;4973022;28;20574;-73
2024/02/14 13:07:50;;;;;;;5.37;3.37;;;11.00;99.90;;;;;;4968280;28;20506;-72
2024/02/14 13:10:36;;;;;;;4.50;2.60;;;11.00;99.90;;;;;;4969977;28;20419;-73
2024/02/14 13:13:23;;;;;;;5.17;3.03;;;11.00;99.90;;;;;;4971184;28;20477;-73
2024/02/14 13:16:09;;;;;;;4.60;2.83;;;11.00;99.90;;;;;;4968173;28;20578;-72
2024/02/14 13:18:54;;;;;;;3.70;2.90;;;11.00;99.90;;;;;;4970687;28;20413;-73
2024/02/14 13:21:45;;;;;;;6.60;2.93;;;11.00;99.90;;;;;;4971543;28;20462;-73
2024/02/14 13:24:30;;;;;;;9.00;4.53;;;10.90;99.90;;;;;;4971123;28;20519;-73
2024/02/14 13:27:16;;;;;;;10.40;4.50;;;11.00;99.90;;;;;;4970826;28;20544;-73
2024/02/14 13:32:29;;;;;;;4.60;2.80;;;11.00;99.90;;;;;;5039436;23;20464;-85
2024/02/14 13:35:14;;;;;;;5.60;3.00;;;11.10;99.90;;;;;;5014355;28;20467;-85
2024/02/14 13:38:00;;;;;;;5.73;2.87;;;11.10;99.90;;;;;;5015714;28;20503;-86
2024/02/14 13:40:46;;;;;;;5.80;3.33;;;11.10;99.90;;;;;;5015729;28;20480;-85
2024/02/14 13:43:31;;;;;;;7.63;3.93;;;11.10;99.90;;;;;;5015450;28;20926;-85
2024/02/14 13:46:17;;;;;;;12.33;5.73;;;11.20;99.90;;;;;;5018062;28;21353;-85
2024/02/14 13:49:04;;;;;;;6.57;3.50;;;11.20;99.90;;;;;;5014479;28;20430;-85
2024/02/14 13:51:51;;;;;;;9.77;3.23;;;11.20;99.90;;;;;;5017668;28;20415;-86
2024/02/14 13:54:36;;;;;;;6.60;3.60;;;11.20;99.90;;;;;;5008558;28;20449;-85
2024/02/14 13:57:22;;;;;;;6.77;3.90;;;11.20;99.90;;;;;;5016311;28;20435;-85
2024/02/14 14:00:10;;;;;;;4.60;2.83;;;11.30;99.90;;;;;;5018627;28;20831;-85
2024/02/14 14:02:56;;;;;;;5.70;2.70;;;11.30;99.90;;;;;;5015587;28;21045;-85
2024/02/14 14:05:43;;;;;;;5.20;3.53;;;11.30;99.90;;;;;;5017214;28;20458;-85
2024/02/14 14:08:28;;;;;;;5.70;2.53;;;11.30;99.90;;;;;;5010566;28;20558;-85
2024/02/14 14:11:14;;;;;;;5.03;2.73;;;11.30;99.90;;;;;;5009955;28;20451;-84
2024/02/14 14:14:00;;;;;;;4.23;2.87;;;11.30;99.90;;;;;;5014733;28;20780;-85
2024/02/14 14:16:46;;;;;;;3.90;3.10;;;11.40;99.90;;;;;;5016833;28;20440;-84
2024/02/14 14:19:32;;;;;;;5.70;4.10;;;11.40;99.90;;;;;;5014672;28;20443;-84
2024/02/14 14:22:19;;;;;;;6.07;3.20;;;11.40;99.90;;;;;;5015785;28;20406;-85
2024/02/14 14:25:07;;;;;;;4.10;3.00;;;11.40;99.90;;;;;;5015478;28;20471;-85
2024/02/14 14:27:53;;;;;;;3.90;3.10;;;11.40;99.90;;;;;;5011622;28;21089;-85
2024/02/14 14:30:39;;;;;;;7.07;2.70;;;11.40;99.90;;;;;;5019687;28;20479;-85
2024/02/14 14:33:25;;;;;;;4.17;2.93;;;11.40;99.90;;;;;;5026952;28;20439;-86
2024/02/14 14:36:11;;;;;;;5.17;3.53;;;11.50;99.90;;;;;;5031533;28;20451;-86